createdAt,value
2022-09-02T00:02:24.884Z,101145.83
2022-09-02T00:05:12.293Z,101139.94
2022-09-02T00:07:52.862Z,101140.41
2022-09-02T00:10:53.952Z,101138.44
2022-09-02T00:13:44.677Z,101138.12
2022-09-02T00:16:17.766Z,101141.75
2022-09-02T00:18:57.241Z,101146.80
2022-09-02T00:21:39.138Z,101146.79
2022-09-02T00:24:25.807Z,101149.20
2022-09-02T00:27:08.047Z,101151.04
2022-09-02T00:29:45.662Z,101155.73
2022-09-02T00:32:23.247Z,101154.98
2022-09-02T00:34:54.747Z,101150.98
2022-09-02T00:37:54.577Z,101150.42
2022-09-02T00:40:33.463Z,101151.34
2022-09-02T00:43:49.452Z,101151.65
2022-09-02T00:46:30.448Z,101152.59
2022-09-02T00:49:35.023Z,101149.78
2022-09-02T00:53:19.462Z,101150.81
2022-09-02T00:56:03.121Z,101151.79
2022-09-02T00:58:38.678Z,101148.35
2022-09-02T01:01:30.071Z,101149.48
2022-09-02T01:04:08.261Z,101146.20
2022-09-02T01:07:24.496Z,101144.42
2022-09-02T01:10:16.328Z,101150.06
2022-09-02T01:13:09.490Z,101152.20
2022-09-02T01:16:27.570Z,101157.71
2022-09-02T01:19:43.726Z,101152.55
2022-09-02T01:22:34.128Z,101158.88
2022-09-02T01:25:41.485Z,101161.35
2022-09-02T01:28:40.983Z,101158.80
2022-09-02T01:31:18.145Z,101158.03
2022-09-02T01:34:06.897Z,101161.80
2022-09-02T01:36:42.724Z,101160.67
2022-09-02T01:39:32.985Z,101157.08
2022-09-02T01:42:30.468Z,101151.84
2022-09-02T01:45:05.402Z,101149.94
2022-09-02T01:47:46.477Z,101149.19
2022-09-02T01:50:27.050Z,101151.38
2022-09-02T01:53:39.476Z,101147.89
2022-09-02T01:56:15.134Z,101143.08
2022-09-02T01:59:08.373Z,101139.34
2022-09-02T02:01:48.308Z,101140.82
2022-09-02T02:04:20.780Z,101136.90
2022-09-02T02:07:19.649Z,101136.77
2022-09-02T02:10:10.580Z,101138.91
2022-09-02T02:13:02.927Z,101133.72
2022-09-02T02:16:08.539Z,101131.91
2022-09-02T02:18:43.487Z,101133.19
2022-09-02T02:21:15.370Z,101134.11
2022-09-02T02:24:01.886Z,101130.76
2022-09-02T02:26:33.749Z,101128.39
2022-09-02T02:29:09.758Z,101128.73
2022-09-02T02:31:39.896Z,101127.39
2022-09-02T02:34:43.079Z,101125.27
2022-09-02T02:37:33.177Z,101124.17
2022-09-02T02:40:14.353Z,101124.61
2022-09-02T02:42:55.041Z,101124.08
2022-09-02T02:45:37.939Z,101126.95
2022-09-02T02:48:15.044Z,101124.89
2022-09-02T02:51:03.153Z,101126.16
2022-09-02T02:53:40.151Z,101125.63
2022-09-02T02:57:01.347Z,101127.16
2022-09-02T03:00:02.840Z,101127.86
2022-09-02T03:02:42.406Z,101132.23
2022-09-02T03:05:53.995Z,101130.66
2022-09-02T03:09:09.347Z,101127.73
2022-09-02T03:11:54.375Z,101125.45
2022-09-02T03:14:51.599Z,101123.73
2022-09-02T03:17:42.675Z,101123.84
2022-09-02T03:20:17.397Z,101125.01
2022-09-02T03:22:59.378Z,101121.40
2022-09-02T03:25:56.327Z,101129.38
2022-09-02T03:29:13.554Z,101131.14
2022-09-02T03:31:46.349Z,101132.13
2022-09-02T03:34:21.807Z,101135.54
2022-09-02T03:37:13.900Z,101138.09
2022-09-02T03:39:43.241Z,101139.62
2022-09-02T03:42:21.348Z,101141.08
2022-09-02T03:45:01.996Z,101144.71
2022-09-02T03:47:51.509Z,101142.92
2022-09-02T03:50:25.832Z,101142.33
2022-09-02T03:53:01.533Z,101144.04
2022-09-02T03:55:56.042Z,101148.73
2022-09-02T03:58:37.842Z,101148.46
2022-09-02T04:01:37.837Z,101149.09
2022-09-02T04:04:47.698Z,101148.80
2022-09-02T04:07:21.314Z,101152.60
2022-09-02T04:10:02.619Z,101151.30
2022-09-02T04:12:36.836Z,101152.52
2022-09-02T04:16:10.542Z,101153.48
2022-09-02T04:18:43.459Z,101155.11
2022-09-02T04:21:41.650Z,101152.84
2022-09-02T04:24:16.749Z,101153.08
2022-09-02T04:27:05.579Z,101154.77
2022-09-02T04:29:52.357Z,101154.14
2022-09-02T04:32:41.000Z,101153.27
2022-09-02T04:35:26.342Z,101156.80
2022-09-02T04:38:32.851Z,101156.72
2022-09-02T04:41:38.396Z,101160.23
2022-09-02T04:44:38.170Z,101162.08
2022-09-02T04:47:19.316Z,101160.95
2022-09-02T04:49:55.697Z,101166.33
2022-09-02T04:52:54.590Z,101169.70
2022-09-02T04:55:58.050Z,101164.20
2022-09-02T04:58:37.533Z,101162.26
2022-09-02T05:01:38.581Z,101163.03
2022-09-02T05:04:52.829Z,101159.10
2022-09-02T05:07:33.953Z,101158.35
2022-09-02T05:10:35.461Z,101157.67
2022-09-02T05:13:29.520Z,101154.87
2022-09-02T05:16:02.885Z,101151.32
2022-09-02T05:19:01.284Z,101154.71
2022-09-02T05:21:59.144Z,101155.56
2022-09-02T05:25:22.866Z,101154.10
2022-09-02T05:27:59.737Z,101158.20
2022-09-02T05:30:33.345Z,101159.96
2022-09-02T05:33:15.376Z,101160.91
2022-09-02T05:35:56.038Z,101164.34
2022-09-02T05:38:33.905Z,101164.73
2022-09-02T05:41:23.619Z,101164.23
2022-09-02T05:44:01.468Z,101164.16
2022-09-02T05:46:51.885Z,101162.94
2022-09-02T05:49:43.918Z,101161.52
2022-09-02T05:52:26.736Z,101159.88
2022-09-02T05:55:05.577Z,101158.16
2022-09-02T05:57:40.957Z,101161.52
2022-09-02T06:00:17.872Z,101158.23
2022-09-02T06:02:52.636Z,101159.95
2022-09-02T06:06:03.134Z,101161.13
2022-09-02T06:08:46.372Z,101163.99
2022-09-02T06:11:19.522Z,101163.60
2022-09-02T06:13:55.742Z,101166.06
2022-09-02T06:16:35.022Z,101164.21
2022-09-02T06:19:16.439Z,101162.25
2022-09-02T06:22:03.796Z,101165.01
2022-09-02T06:24:38.912Z,101161.42
2022-09-02T06:27:23.233Z,101166.67
2022-09-02T06:30:02.110Z,101169.76
2022-09-02T06:32:52.816Z,101168.30
2022-09-02T06:35:28.046Z,101169.48
2022-09-02T06:38:11.276Z,101171.80
2022-09-02T06:41:03.479Z,101175.06
2022-09-02T06:44:03.135Z,101179.64
2022-09-02T06:46:55.464Z,101175.59
2022-09-02T06:49:35.476Z,101174.78
2022-09-02T06:52:17.033Z,101178.36
2022-09-02T06:55:11.076Z,101178.93
2022-09-02T06:57:59.194Z,101181.70
2022-09-02T07:00:37.016Z,101180.14
2022-09-02T07:03:36.739Z,101184.63
2022-09-02T07:06:17.819Z,101184.21
2022-09-02T07:09:08.302Z,101185.52
2022-09-02T07:11:53.930Z,101190.83
2022-09-02T07:14:39.341Z,101189.25
2022-09-02T07:17:23.606Z,101192.84
2022-09-02T07:20:18.095Z,101195.76
2022-09-02T07:23:11.692Z,101194.89
2022-09-02T07:25:59.178Z,101192.47
2022-09-02T07:28:44.038Z,101192.52
2022-09-02T07:31:22.251Z,101190.02
2022-09-02T07:34:19.235Z,101196.73
2022-09-02T07:37:03.270Z,101195.95
2022-09-02T07:39:50.231Z,101193.56
2022-09-02T07:42:43.781Z,101196.13
2022-09-02T07:46:24.817Z,101197.43
2022-09-02T07:49:09.936Z,101198.64
2022-09-02T07:51:58.172Z,101199.83
2022-09-02T07:54:54.759Z,101196.06
2022-09-02T07:57:56.809Z,101197.61
2022-09-02T08:01:14.242Z,101193.16
2022-09-02T08:04:22.049Z,101195.60
2022-09-02T08:07:14.247Z,101196.58
2022-09-02T08:10:01.458Z,101196.37
2022-09-02T08:12:36.603Z,101199.69
2022-09-02T08:15:50.651Z,101200.48
2022-09-02T08:18:42.777Z,101200.64
2022-09-02T08:21:29.318Z,101202.33
2022-09-02T08:24:10.630Z,101203.38
2022-09-02T08:26:55.832Z,101202.06
2022-09-02T08:30:22.192Z,101204.33
2022-09-02T08:33:19.533Z,101211.89
2022-09-02T08:36:15.455Z,101213.52
2022-09-02T08:39:02.062Z,101217.64
2022-09-02T08:42:05.013Z,101213.23
2022-09-02T08:44:54.585Z,101213.06
2022-09-02T08:47:32.222Z,101209.27
2022-09-02T08:50:22.209Z,101209.40
2022-09-02T08:53:40.343Z,101210.38
2022-09-02T08:57:09.658Z,101206.94
2022-09-02T08:59:53.172Z,101205.80
2022-09-02T09:02:33.931Z,101207.54
2022-09-02T09:05:13.096Z,101210.70
2022-09-02T09:08:09.636Z,101215.60
2022-09-02T09:11:02.613Z,101212.67
2022-09-02T09:13:44.481Z,101213.04
2022-09-02T09:16:46.345Z,101208.42
2022-09-02T09:20:00.702Z,101205.75
2022-09-02T09:22:42.467Z,101202.60
2022-09-02T09:25:30.281Z,101205.71
2022-09-02T09:28:19.566Z,101203.18
2022-09-02T09:31:20.600Z,101203.68
2022-09-02T09:35:00.429Z,101204.48
2022-09-02T09:37:59.749Z,101200.34
2022-09-02T09:41:15.734Z,101200.64
2022-09-02T09:43:54.003Z,101200.77
2022-09-02T09:47:31.840Z,101201.05
2022-09-02T09:50:49.340Z,101204.62
2022-09-02T09:54:16.302Z,101203.18
2022-09-02T09:56:50.809Z,101206.91
2022-09-02T10:00:05.478Z,101207.38
2022-09-02T10:03:06.828Z,101202.23
2022-09-02T10:05:44.323Z,101205.42
2022-09-02T10:08:50.077Z,101203.95
2022-09-02T10:12:07.162Z,101200.83
2022-09-02T10:14:59.642Z,101204.16
2022-09-02T10:18:21.211Z,101202.92
2022-09-02T10:21:45.195Z,101203.77
2022-09-02T10:25:10.434Z,101198.49
2022-09-02T10:28:34.026Z,101202.34
2022-09-02T10:31:51.099Z,101201.33
2022-09-02T10:34:55.885Z,101206.98
2022-09-02T10:38:10.548Z,101205.52
2022-09-02T10:41:32.001Z,101210.08
2022-09-02T10:44:38.493Z,101219.45
2022-09-02T10:50:41.214Z,101212.91
2022-09-02T10:53:32.795Z,101217.52
2022-09-02T10:56:51.937Z,101212.45
2022-09-02T10:59:37.962Z,101219.16
2022-09-02T11:02:18.343Z,101214.71
2022-09-02T11:05:12.713Z,101215.80
2022-09-02T11:08:20.646Z,101218.27
2022-09-02T11:11:22.104Z,101222.11
2022-09-02T11:14:03.547Z,101220.38
2022-09-02T11:16:46.163Z,101212.27
2022-09-02T11:19:49.705Z,101210.17
2022-09-02T11:22:55.626Z,101209.49
2022-09-02T11:25:53.746Z,101207.25
2022-09-02T11:28:43.594Z,101202.71
2022-09-02T11:32:01.011Z,101204.01
2022-09-02T11:35:06.980Z,101204.17
2022-09-02T11:38:27.134Z,101206.55
2022-09-02T11:41:36.635Z,101210.96
2022-09-02T11:44:52.490Z,101206.21
2022-09-02T11:48:17.271Z,101202.41
2022-09-02T11:51:28.171Z,101203.75
2022-09-02T11:54:20.791Z,101202.48
2022-09-02T11:57:41.599Z,101202.94
2022-09-02T12:00:55.879Z,101204.29
2022-09-02T12:03:52.042Z,101201.95
2022-09-02T12:06:28.373Z,101202.58
2022-09-02T12:09:00.758Z,101199.88
2022-09-02T12:11:41.922Z,101196.88
2022-09-02T12:14:31.755Z,101193.27
2022-09-02T12:17:40.824Z,101192.66
2022-09-02T12:20:39.809Z,101190.04
2022-09-02T12:23:10.678Z,101192.36
2022-09-02T12:25:57.356Z,101190.02
2022-09-02T12:28:31.389Z,101180.95
2022-09-02T12:31:08.898Z,101184.77
2022-09-02T12:33:40.213Z,101182.73
2022-09-02T12:36:40.562Z,101177.23
2022-09-02T12:39:25.808Z,101183.50
2022-09-02T12:42:01.731Z,101182.16
2022-09-02T12:44:42.459Z,101184.12
2022-09-02T12:47:31.627Z,101177.92
2022-09-02T12:50:11.962Z,101172.48
2022-09-02T12:52:52.618Z,101169.65
2022-09-02T12:55:27.330Z,101165.59
2022-09-02T12:58:30.365Z,101154.54
2022-09-02T13:01:54.387Z,101165.02
2022-09-02T13:05:10.213Z,101164.39
2022-09-02T13:08:12.285Z,101170.58
2022-09-02T13:10:57.932Z,101167.95
2022-09-02T13:13:55.742Z,101169.61
2022-09-02T13:16:48.383Z,101166.14
2022-09-02T13:19:39.718Z,101163.02
2022-09-02T13:22:46.301Z,101162.08
2022-09-02T13:25:48.661Z,101162.41
2022-09-02T13:28:59.894Z,101162.29
2022-09-02T13:31:31.744Z,101168.46
2022-09-02T13:34:39.801Z,101168.00
2022-09-02T13:38:03.447Z,101172.36
2022-09-02T13:40:39.590Z,101172.64
2022-09-02T13:43:28.305Z,101171.39
2022-09-02T13:46:12.914Z,101170.48
2022-09-02T13:48:50.647Z,101169.38
2022-09-02T13:51:31.138Z,101167.46
2022-09-02T13:54:42.905Z,101165.27
2022-09-02T13:57:47.771Z,101166.76
2022-09-02T14:00:33.502Z,101168.84
2022-09-02T14:03:25.216Z,101162.66
2022-09-02T14:06:23.565Z,101161.51
2022-09-02T14:09:14.336Z,101156.92
2022-09-02T14:12:12.102Z,101154.98
2022-09-02T14:14:53.049Z,101154.77
2022-09-02T14:17:45.524Z,101156.56
2022-09-02T14:20:33.903Z,101157.16
2022-09-02T14:23:16.773Z,101157.88
2022-09-02T14:26:02.483Z,101163.30
2022-09-02T14:28:52.485Z,101164.39
2022-09-02T14:31:35.406Z,101165.00
2022-09-02T14:34:36.806Z,101167.47
2022-09-02T14:38:08.491Z,101164.59
2022-09-02T14:41:12.095Z,101165.83
2022-09-02T14:44:15.873Z,101167.20
2022-09-02T14:47:01.383Z,101165.32
2022-09-02T14:49:39.614Z,101171.83
2022-09-02T14:52:41.704Z,101171.55
2022-09-02T14:55:59.625Z,101170.23
2022-09-02T14:58:52.127Z,101164.80
2022-09-02T15:02:09.248Z,101170.29
2022-09-02T15:05:14.904Z,101165.39
2022-09-02T15:08:16.402Z,101164.55
2022-09-02T15:11:04.106Z,101159.25
2022-09-02T15:13:40.538Z,101157.40
2022-09-02T15:16:32.023Z,101159.55
2022-09-02T15:19:18.828Z,101157.12
2022-09-02T15:22:22.787Z,101154.62
2022-09-02T15:25:04.469Z,101156.61
2022-09-02T15:27:39.317Z,101150.67
2022-09-02T15:30:35.791Z,101152.25
2022-09-02T15:33:18.992Z,101144.32
2022-09-02T15:36:25.745Z,101150.31
2022-09-02T15:39:40.556Z,101151.59
2022-09-02T15:42:29.989Z,101150.80
2022-09-02T15:45:10.760Z,101152.40
2022-09-02T15:47:54.017Z,101149.34
2022-09-02T15:50:46.612Z,101149.67
2022-09-02T15:53:28.968Z,101152.24
2022-09-02T15:56:00.560Z,101155.71
2022-09-02T15:59:20.068Z,101153.94
2022-09-02T16:02:27.020Z,101154.43
2022-09-02T16:05:21.984Z,101157.32
2022-09-02T16:08:20.878Z,101158.05
2022-09-02T16:11:10.995Z,101161.23
2022-09-02T16:14:06.765Z,101159.81
2022-09-02T16:17:25.786Z,101160.16
2022-09-02T16:20:24.135Z,101158.98
2022-09-02T16:23:07.362Z,101165.54
2022-09-02T16:26:09.305Z,101163.92
2022-09-02T16:29:28.336Z,101163.97
2022-09-02T16:32:55.342Z,101160.56
2022-09-02T16:35:55.750Z,101160.09
2022-09-02T16:38:56.967Z,101155.77
2022-09-02T16:41:44.229Z,101152.95
2022-09-02T16:44:34.539Z,101152.80
2022-09-02T16:47:25.239Z,101150.46
2022-09-02T16:50:28.283Z,101156.20
2022-09-02T16:53:09.333Z,101153.30
2022-09-02T16:56:27.896Z,101155.02
2022-09-02T16:59:11.941Z,101153.86
2022-09-02T17:02:24.081Z,101155.05
2022-09-02T17:05:08.773Z,101153.73
2022-09-02T17:08:02.866Z,101153.86
2022-09-02T17:10:36.374Z,101155.33
2022-09-02T17:13:31.406Z,101151.83
2022-09-02T17:16:12.909Z,101151.63
2022-09-02T17:18:59.794Z,101150.77
2022-09-02T17:22:12.645Z,101149.46
2022-09-02T17:24:54.091Z,101145.34
2022-09-02T17:27:28.583Z,101144.88
2022-09-02T17:30:25.498Z,101144.29
2022-09-02T17:33:29.238Z,101150.16
2022-09-02T17:36:29.566Z,101149.48
2022-09-02T17:39:16.918Z,101149.91
2022-09-02T17:42:16.940Z,101148.27
2022-09-02T17:45:01.363Z,101146.97
2022-09-02T17:47:59.272Z,101152.30
2022-09-02T17:50:56.603Z,101150.31
2022-09-02T17:53:36.235Z,101154.10
2022-09-02T17:56:51.290Z,101152.05
2022-09-02T18:00:13.944Z,101155.29
2022-09-02T18:03:42.365Z,101154.20
2022-09-02T18:07:08.907Z,101153.44
2022-09-02T18:10:57.839Z,101158.08
2022-09-02T18:14:14.464Z,101160.25
2022-09-02T18:17:10.825Z,101157.83
2022-09-02T18:20:55.091Z,101161.81
2022-09-02T18:23:50.876Z,101166.91
2022-09-02T18:27:35.545Z,101170.20
2022-09-02T18:31:09.598Z,101174.55
2022-09-02T18:34:37.773Z,101177.84
2022-09-02T18:37:41.622Z,101180.80
2022-09-02T18:41:24.291Z,101185.98
2022-09-02T18:44:55.425Z,101186.23
2022-09-02T18:48:54.291Z,101185.73
2022-09-02T18:52:14.452Z,101183.27
2022-09-02T18:55:19.785Z,101183.20
2022-09-02T18:59:04.631Z,101184.80
2022-09-02T19:02:02.298Z,101184.79
2022-09-02T19:04:58.926Z,101185.71
2022-09-02T19:07:59.908Z,101184.91
2022-09-02T19:26:06.967Z,101194.40
2022-09-02T19:28:52.138Z,101193.42
2022-09-02T19:31:29.706Z,101198.21
2022-09-02T19:34:14.448Z,101195.11
2022-09-02T19:36:49.242Z,101194.91
2022-09-02T19:40:03.693Z,101195.16
2022-09-02T19:42:36.007Z,101197.23
2022-09-02T19:45:21.890Z,101197.97
2022-09-02T19:48:06.961Z,101194.77
2022-09-02T19:51:09.081Z,101191.08
2022-09-02T19:53:56.812Z,101190.55
2022-09-02T19:56:45.676Z,101187.23
2022-09-02T20:00:06.545Z,101186.73
2022-09-02T20:02:44.687Z,101187.92
2022-09-02T20:05:26.482Z,101185.70
2022-09-02T20:08:01.618Z,101183.13
2022-09-02T20:10:37.537Z,101183.92
2022-09-02T20:13:25.306Z,101181.77
2022-09-02T20:15:57.989Z,101184.84
2022-09-02T20:18:30.243Z,101183.21
2022-09-02T20:21:12.964Z,101184.61
2022-09-02T20:23:47.713Z,101188.11
2022-09-02T20:26:31.333Z,101186.57
2022-09-02T20:29:40.574Z,101184.68
2022-09-02T20:32:42.025Z,101186.10
2022-09-02T20:36:06.723Z,101187.65
2022-09-02T20:39:07.325Z,101185.09
2022-09-02T20:42:30.957Z,101185.39
2022-09-02T20:45:30.236Z,101181.13
2022-09-02T20:48:52.371Z,101180.73
2022-09-02T20:52:19.439Z,101185.33
2022-09-02T20:56:01.366Z,101183.94
2022-09-02T20:58:36.834Z,101181.80
2022-09-02T21:01:37.297Z,101184.25
2022-09-02T21:04:22.274Z,101179.85
2022-09-02T21:07:17.921Z,101176.25
2022-09-02T21:10:16.852Z,101180.01
2022-09-02T21:13:16.701Z,101177.63
2022-09-02T21:16:20.184Z,101181.17
2022-09-02T21:19:30.976Z,101178.84
2022-09-02T21:22:26.943Z,101175.64
2022-09-02T21:25:38.410Z,101177.80
2022-09-02T21:28:18.237Z,101178.59
2022-09-02T21:31:21.189Z,101178.15
2022-09-02T21:34:05.682Z,101182.29
2022-09-02T21:36:42.019Z,101179.77
2022-09-02T21:39:51.443Z,101181.23
2022-09-02T21:43:11.632Z,101182.00
2022-09-02T21:45:51.795Z,101182.63
2022-09-02T21:49:05.054Z,101174.04
2022-09-02T21:52:41.725Z,101172.02
2022-09-02T21:55:35.640Z,101168.98
2022-09-02T21:59:06.656Z,101170.40
2022-09-02T22:02:19.688Z,101169.25
2022-09-02T22:05:21.624Z,101177.44
2022-09-02T22:08:41.291Z,101178.73
2022-09-02T22:11:54.781Z,101182.14
2022-09-02T22:15:31.226Z,101180.58
2022-09-02T22:19:01.890Z,101178.73
2022-09-02T22:21:53.961Z,101177.06
2022-09-02T22:25:00.939Z,101175.04
2022-09-02T22:28:15.383Z,101177.05
2022-09-02T22:31:13.834Z,101175.85
2022-09-02T22:34:00.130Z,101177.00
2022-09-02T22:37:14.018Z,101171.04
2022-09-02T22:39:54.092Z,101167.91
2022-09-02T22:43:10.964Z,101167.89
2022-09-02T22:46:15.135Z,101168.93
2022-09-02T22:49:37.732Z,101168.82
2022-09-02T22:52:57.208Z,101166.98
2022-09-02T22:56:05.320Z,101170.69
2022-09-02T22:59:29.814Z,101168.95
2022-09-02T23:02:32.105Z,101163.55
2022-09-02T23:06:01.801Z,101167.87
2022-09-02T23:09:11.624Z,101169.85
2022-09-02T23:11:53.351Z,101168.11
2022-09-02T23:15:04.650Z,101164.27
2022-09-02T23:18:08.768Z,101165.83
2022-09-02T23:21:33.014Z,101168.27
2022-09-02T23:24:04.177Z,101166.46
2022-09-02T23:27:35.597Z,101164.05
2022-09-02T23:30:33.387Z,101166.66
2022-09-02T23:33:09.167Z,101165.95
2022-09-02T23:36:47.572Z,101164.55
2022-09-02T23:39:53.088Z,101165.73
2022-09-02T23:42:29.797Z,101168.84
2022-09-02T23:45:30.093Z,101167.39
2022-09-02T23:48:51.954Z,101171.17
2022-09-02T23:51:58.015Z,101170.41
2022-09-02T23:54:38.698Z,101169.52
2022-09-02T23:57:58.571Z,101171.65
